CheckWX is a tool to help pilots better visualize weather data.  It is not intended as a substitute for an official pre-flight weather briefing.

04:52:06 UTC

KLAX TAF
Los Angeles International Airport
Los Angeles, California, USA
KLAX 160309Z 1603/1706 26012KT P6SM SCT025 FM160400 25006KT P6SM OVC015 FM160700 VRB03KT P6SM OVC015 FM161700 VRB03KT P6SM OVC022 FM162000 26012KT P6SM BKN025 FM162200 26012KT P6SM SCT025 FM170200 26006KT P6SM SCT015 OVC025

Jun-16@
03:00 UTC

Jun-16 @ 03:00 UTC

Jun-16@
04:00 UTC

Jun-16 @ 04:00 UTC

KLAX 160309Z 1603/1706 26012KT P6SM SCT025

Expired

Wind
  • 260° at 12 KTS
Cloud Levels
  • Scattered at 2,500' AGL

Jun-16@
04:00 UTC

Jun-16 @ 04:00 UTC

Jun-16@
07:00 UTC

Jun-16 @ 07:00 UTC

FM160400 25006KT P6SM OVC015

From

From Standard forecast or significant change

Wind
  • 250° at 6 KTS
Cloud Levels
  • Overcast at 1,500' AGL

Jun-16@
07:00 UTC

Jun-16 @ 07:00 UTC

Jun-16@
17:00 UTC

Jun-16 @ 17:00 UTC

FM160700 VRB03KT P6SM OVC015

From

From Standard forecast or significant change

Wind
  • Variable at 3 KTS
Cloud Levels
  • Overcast at 1,500' AGL

Jun-16@
17:00 UTC

Jun-16 @ 17:00 UTC

Jun-16@
20:00 UTC

Jun-16 @ 20:00 UTC

FM161700 VRB03KT P6SM OVC022

From

From Standard forecast or significant change

Wind
  • Variable at 3 KTS
Cloud Levels
  • Overcast at 2,200' AGL

Jun-16@
20:00 UTC

Jun-16 @ 20:00 UTC

Jun-16@
22:00 UTC

Jun-16 @ 22:00 UTC

FM162000 26012KT P6SM BKN025

From

From Standard forecast or significant change

Wind
  • 260° at 12 KTS
Cloud Levels
  • Broken at 2,500' AGL

Jun-16@
22:00 UTC

Jun-16 @ 22:00 UTC

Jun-17@
02:00 UTC

Jun-17 @ 02:00 UTC

FM162200 26012KT P6SM SCT025

From

From Standard forecast or significant change

Wind
  • 260° at 12 KTS
Cloud Levels
  • Scattered at 2,500' AGL

Jun-17@
02:00 UTC

Jun-17 @ 02:00 UTC

Jun-17@
06:00 UTC

Jun-17 @ 06:00 UTC

FM170200 26006KT P6SM SCT015 OVC025

From

From Standard forecast or significant change

Wind
  • 260° at 6 KTS
Cloud Levels
  • Scattered at 1,500' AGL
  • Overcast at 2,500' AGL